| time (UTC) | temp F | wind direction | speed MPH | gust MPH | rain 1hr in | rain 24hr in | rain mn in | humidity % | barometer mb |
| 20260905145327 | 75 | 305 | 7.0 | 12.0 | 0.00 | 0.00 | 0.00 | 47 | 1026.3 |
| 20260905143324 | 76 | 290 | 8.0 | 16.0 | 0.00 | 0.00 | 0.00 | 46 | 1026.4 |
| 20260905142324 | 76 | 330 | 7.0 | 12.0 | 0.00 | 0.00 | 0.00 | 48 | 1026.3 |
| 20260905141323 | 76 | 310 | 8.0 | 12.0 | 0.00 | 0.00 | 0.00 | 47 | 1026.5 |
| 20260905140325 | 75 | 298 | 8.0 | 14.0 | 0.00 | 0.00 | 0.00 | 46 | 1026.3 |
| 20260905135324 | 75 | 319 | 9.0 | 17.0 | 0.00 | 0.00 | 0.00 | 45 | 1026.4 |
| 20260905134319 | 76 | 277 | 10.0 | 14.0 | 0.00 | 0.00 | 0.00 | 45 | 1026.5 |
| 20260905133318 | 76 | 327 | 9.0 | 14.0 | 0.00 | 0.00 | 0.00 | 46 | 1026.4 |
| 20260905131317 | 76 | 306 | 11.0 | 19.0 | 0.00 | 0.00 | 0.00 | 47 | 1026.4 |
| 20260905130318 | 75 | 307 | 7.0 | 18.0 | 0.00 | 0.00 | 0.00 | 46 | 1026.4 |
| 20260905125319 | 75 | 314 | 6.0 | 12.0 | 0.00 | 0.00 | 0.00 | 47 | 1026.4 |
| 20260905124321 | 75 | 262 | 5.0 | 11.0 | 0.00 | 0.00 | 0.00 | 47 | 1026.4 |
| 20260905122318 | 75 | 252 | 10.0 | 15.0 | 0.00 | 0.00 | 0.00 | 47 | 1026.5 |
| 20260905120313 | 75 | 318 | 6.0 | 14.0 | 0.00 | 0.00 | 0.00 | 47 | 1026.4 |
| 20260905115311 | 75 | 232 | 6.0 | 15.0 | 0.00 | 0.00 | 0.00 | 49 | 1026.4 |
| 20260905114311 | 74 | 269 | 8.0 | 14.0 | 0.00 | 0.00 | 0.00 | 47 | 1026.4 |
| 20260905113313 | 74 | 315 | 9.0 | 14.0 | 0.00 | 0.00 | 0.00 | 50 | 1026.4 |
| 20260905112311 | 74 | 262 | 7.0 | 12.0 | 0.00 | 0.00 | 0.00 | 49 | 1026.5 |
| 20260905111312 | 74 | 287 | 9.0 | 13.0 | 0.00 | 0.00 | 0.00 | 51 | 1026.5 |
| 20260905110311 | 74 | 296 | 8.0 | 13.0 | 0.00 | 0.00 | 0.00 | 51 | 1026.5 |
| 20260905105314 | 73 | 271 | 8.0 | 10.0 | 0.00 | 0.00 | 0.00 | 52 | 1026.5 |
| 20260905104306 | 73 | 254 | 8.0 | 11.0 | 0.00 | 0.00 | 0.00 | 52 | 1026.5 |
| 20260905103306 | 72 | 306 | 6.0 | 11.0 | 0.00 | 0.00 | 0.00 | 51 | 1026.5 |
| 20260905102307 | 72 | 265 | 6.0 | 9.0 | 0.00 | 0.00 | 0.00 | 54 | 1026.5 |
| 20260905101306 | 72 | 257 | 4.0 | 9.0 | 0.00 | 0.00 | 0.00 | 54 | 1026.5 |
| 20260905100303 | 71 | 242 | 6.0 | 10.0 | 0.00 | 0.00 | 0.00 | 54 | 1026.6 |
| 20260905095306 | 71 | 270 | 6.0 | 11.0 | 0.00 | 0.00 | 0.00 | 54 | 1026.7 |
| 20260905094303 | 71 | 279 | 4.0 | 10.0 | 0.00 | 0.00 | 0.00 | 56 | 1026.6 |
| 20260905093303 | 70 | 268 | 5.0 | 10.0 | 0.00 | 0.00 | 0.00 | 56 | 1026.6 |
| 20260905092306 | 70 | 252 | 6.0 | 9.0 | 0.00 | 0.00 | 0.00 | 55 | 1026.6 |
| 20260905091259 | 70 | 288 | 5.0 | 8.0 | 0.00 | 0.00 | 0.00 | 55 | 1026.4 |
| 20260905090258 | 70 | 255 | 5.0 | 9.0 | 0.00 | 0.00 | 0.00 | 53 | 1026.4 |
| 20260905085259 | 70 | 240 | 3.0 | 10.0 | 0.00 | 0.00 | 0.00 | 53 | 1026.3 |
| 20260905083256 | 69 | 237 | 2.0 | 5.0 | 0.00 | 0.00 | 0.00 | 54 | 1026.1 |
| 20260905082256 | 69 | 235 | 0.0 | 1.0 | 0.00 | 0.00 | 0.00 | 54 | 1026.0 |
| 20260905081256 | 69 | 235 | 0.0 | 0.0 | 0.00 | 0.00 | 0.00 | 54 | 1025.9 |
| 20260905080254 | 68 | 235 | 1.0 | 2.0 | 0.00 | 0.00 | 0.00 | 55 | 1025.9 |
| 20260905075249 | 67 | 235 | 0.0 | 2.0 | 0.00 | 0.00 | 0.00 | 54 | 1025.8 |
| 20260905074250 | 67 | 235 | 2.0 | 3.0 | 0.00 | 0.00 | 0.00 | 53 | 1025.7 |
| 20260905073248 | 67 | 242 | 1.0 | 3.0 | 0.00 | 0.00 | 0.00 | 54 | 1025.5 |
| 20260905072244 | 66 | 242 | 2.0 | 4.0 | 0.00 | 0.00 | 0.00 | 56 | 1025.6 |
| 20260905071246 | 65 | 240 | 2.0 | 4.0 | 0.00 | 0.00 | 0.00 | 54 | 1025.2 |
| 20260905070252 | 66 | 244 | 0.0 | 2.0 | 0.00 | 0.00 | 0.00 | 56 | 1025.2 |
| 20260905065239 | 66 | 245 | 2.0 | 4.0 | 0.00 | 0.00 | 0.00 | 55 | 1025.1 |
| 20260905064247 | 66 | 227 | 2.0 | 3.0 | 0.00 | 0.00 | 0.00 | 52 | 1025.0 |
| 20260905062240 | 67 | 227 | 3.0 | 5.0 | 0.00 | 0.00 | 0.00 | 50 | 1024.8 |
| 20260905061237 | 66 | 242 | 2.0 | 5.0 | 0.00 | 0.00 | 0.00 | 50 | 1024.6 |
| 20260905060238 | 66 | 182 | 2.0 | 4.0 | 0.00 | 0.00 | 0.00 | 50 | 1024.6 |
| 20260905055234 | 66 | 191 | 3.0 | 5.0 | 0.00 | 0.00 | 0.00 | 50 | 1024.7 |
| 20260905054239 | 66 | 214 | 2.0 | 4.0 | 0.00 | 0.00 | 0.00 | 50 | 1024.7 |
| 20260905053236 | 66 | 188 | 3.0 | 5.0 | 0.00 | 0.00 | 0.00 | 50 | 1024.6 |
| 20260905052235 | 65 | 198 | 2.0 | 3.0 | 0.00 | 0.00 | 0.00 | 52 | 1024.6 |
| 20260905051235 | 65 | 194 | 0.0 | 3.0 | 0.00 | 0.00 | 0.00 | 53 | 1024.5 |
| 20260905050234 | 64 | 194 | 0.0 | 0.0 | 0.00 | 0.00 | 0.00 | 53 | 1024.4 |
| 20260905045236 | 64 | 194 | 1.0 | 3.0 | 0.00 | 0.00 | 0.00 | 53 | 1024.4 |
| 20260905044234 | 65 | 194 | 1.0 | 3.0 | 0.00 | 0.00 | 0.00 | 53 | 1024.3 |
| 20260905043233 | 65 | 199 | 1.0 | 3.0 | 0.00 | 0.00 | 0.00 | 52 | 1024.4 |
| 20260905042234 | 66 | 199 | 2.0 | 5.0 | 0.00 | 0.00 | 0.00 | 51 | 1024.2 |
| 20260905040234 | 65 | 198 | 3.0 | 5.0 | 0.00 | 0.00 | 0.00 | 53 | 1024.0 |
| 20260905035232 | 65 | 238 | 2.0 | 4.0 | 0.00 | 0.00 | 0.00 | 54 | 1023.9 |
| 20260905034233 | 66 | 255 | 1.0 | 3.0 | 0.00 | 0.00 | 0.00 | 53 | 1023.6 |
| 20260905033231 | 66 | 255 | 2.0 | 3.0 | 0.00 | 0.00 | 0.00 | 54 | 1023.6 |
| 20260905032230 | 65 | 202 | 2.0 | 4.0 | 0.00 | 0.00 | 0.00 | 55 | 1023.4 |
| 20260905031230 | 66 | 202 | 3.0 | 4.0 | 0.00 | 0.00 | 0.00 | 55 | 1023.2 |
| 20260905030239 | 66 | 210 | 2.0 | 6.0 | 0.00 | 0.00 | 0.00 | 54 | 1023.3 |
| 20260905025230 | 66 | 259 | 3.0 | 6.0 | 0.00 | 0.00 | 0.00 | 53 | 1023.5 |
| 20260905023231 | 67 | 231 | 1.0 | 4.0 | 0.00 | 0.00 | 0.00 | 52 | 1023.2 |
| 20260905022230 | 67 | 190 | 1.0 | 2.0 | 0.00 | 0.00 | 0.00 | 50 | 1023.0 |
| 20260905021230 | 67 | 190 | 0.0 | 2.0 | 0.00 | 0.00 | 0.00 | 50 | 1023.0 |
| 20260905020232 | 67 | 190 | 1.0 | 3.0 | 0.00 | 0.00 | 0.00 | 50 | 1022.9 |
| 20260905015225 | 69 | 191 | 0.0 | 0.0 | 0.00 | 0.00 | 0.00 | 47 | 1022.9 |
| 20260905014224 | 69 | 191 | 0.0 | 1.0 | 0.00 | 0.00 | 0.00 | 47 | 1023.0 |
| 20260905013226 | 69 | 190 | 2.0 | 4.0 | 0.00 | 0.00 | 0.00 | 46 | 1023.0 |
| 20260905011225 | 71 | 258 | 3.0 | 6.0 | 0.00 | 0.00 | 0.00 | 44 | 1023.2 |
| 20260905005224 | 71 | 245 | 4.0 | 8.0 | 0.00 | 0.00 | 0.00 | 45 | 1023.2 |
| 20260905004224 | 71 | 234 | 3.0 | 6.0 | 0.00 | 0.00 | 0.00 | 46 | 1023.1 |
| 20260905003225 | 71 | 240 | 3.0 | 7.0 | 0.00 | 0.00 | 0.00 | 45 | 1023.1 |
| 20260905002219 | 71 | 238 | 2.0 | 5.0 | 0.00 | 0.00 | 0.00 | 45 | 1023.1 |
| 20260905001220 | 71 | 252 | 3.0 | 4.0 | 0.00 | 0.00 | 0.00 | 45 | 1023.0 |
| 20260905000219 | 71 | 234 | 2.0 | 6.0 | 0.00 | 0.00 | 0.00 | 45 | 1022.9 |
| 20260904235219 | 71 | 223 | 2.0 | 4.0 | 0.00 | 0.00 | 0.00 | 46 | 1023.0 |
| 20260904234220 | 71 | 207 | 2.0 | 4.0 | 0.00 | 0.00 | 0.00 | 46 | 1023.0 |
| 20260904232219 | 71 | 207 | 2.0 | 4.0 | 0.00 | 0.00 | 0.00 | 46 | 1022.9 |
| 20260904231219 | 71 | 206 | 3.0 | 7.0 | 0.00 | 0.00 | 0.00 | 46 | 1022.9 |
| 20260904224217 | 74 | 229 | 3.0 | 7.0 | 0.00 | 0.00 | 0.00 | 41 | 1022.7 |
| 20260904223216 | 74 | 205 | 4.0 | 6.0 | 0.00 | 0.00 | 0.00 | 41 | 1022.7 |
| 20260904221215 | 74 | 227 | 4.0 | 7.0 | 0.00 | 0.00 | 0.00 | 41 | 1022.7 |
| 20260904220216 | 74 | 183 | 3.0 | 6.0 | 0.00 | 0.00 | 0.00 | 42 | 1022.7 |
| 20260904215217 | 74 | 198 | 2.0 | 4.0 | 0.00 | 0.00 | 0.00 | 43 | 1022.7 |
| 20260904214216 | 74 | 216 | 2.0 | 4.0 | 0.00 | 0.00 | 0.00 | 42 | 1022.8 |
| 20260904213215 | 74 | 226 | 3.0 | 5.0 | 0.00 | 0.00 | 0.00 | 43 | 1022.7 |
| 20260904212214 | 74 | 202 | 2.0 | 5.0 | 0.00 | 0.00 | 0.00 | 43 | 1022.6 |
| 20260904205213 | 75 | 250 | 2.0 | 3.0 | 0.00 | 0.00 | 0.00 | 41 | 1022.6 |
| 20260904204211 | 76 | 250 | 2.0 | 4.0 | 0.00 | 0.00 | 0.00 | 41 | 1022.7 |
| 20260904203210 | 76 | 250 | 2.0 | 4.0 | 0.00 | 0.00 | 0.00 | 40 | 1022.7 |
| 20260904202209 | 77 | 253 | 3.0 | 4.0 | 0.00 | 0.00 | 0.00 | 39 | 1022.7 |
| 20260904200203 | 77 | 248 | 3.0 | 8.0 | 0.00 | 0.00 | 0.00 | 38 | 1022.4 |
| 20260904195204 | 77 | 239 | 4.0 | 8.0 | 0.00 | 0.00 | 0.00 | 38 | 1022.3 |
| 20260904194205 | 77 | 200 | 4.0 | 10.0 | 0.00 | 0.00 | 0.00 | 38 | 1022.3 |
| 20260904193203 | 77 | 268 | 3.0 | 6.0 | 0.00 | 0.00 | 0.00 | 38 | 1022.1 |
| 20260904192203 | 78 | 256 | 3.0 | 7.0 | 0.00 | 0.00 | 0.00 | 37 | 1021.9 |
| 20260904191202 | 78 | 216 | 4.0 | 9.0 | 0.00 | 0.00 | 0.00 | 37 | 1021.7 |
| 20260904190203 | 78 | 225 | 4.0 | 7.0 | 0.00 | 0.00 | 0.00 | 36 | 1021.6 |
| 20260904185203 | 79 | 227 | 3.0 | 6.0 | 0.00 | 0.00 | 0.00 | 36 | 1021.5 |
| 20260904184201 | 79 | 232 | 4.0 | 8.0 | 0.00 | 0.00 | 0.00 | 35 | 1021.4 |
| 20260904183202 | 80 | 238 | 4.0 | 9.0 | 0.00 | 0.00 | 0.00 | 34 | 1021.2 |
| 20260904182203 | 80 | 226 | 3.0 | 8.0 | 0.00 | 0.00 | 0.00 | 34 | 1021.2 |
| 20260904181204 | 80 | 264 | 4.0 | 7.0 | 0.00 | 0.00 | 0.00 | 33 | 1021.0 |
| 20260904180203 | 81 | 255 | 3.0 | 6.0 | 0.00 | 0.00 | 0.00 | 32 | 1020.8 |
| 20260904175203 | 82 | 219 | 4.0 | 8.0 | 0.00 | 0.00 | 0.00 | 31 | 1020.8 |
| 20260904174201 | 82 | 275 | 6.0 | 8.0 | 0.00 | 0.00 | 0.00 | 31 | 1020.9 |
| 20260904173159 | 83 | 259 | 8.0 | 12.0 | 0.00 | 0.00 | 0.00 | 29 | 1020.7 |
| 20260904171158 | 84 | 261 | 7.0 | 12.0 | 0.00 | 0.00 | 0.00 | 29 | 1020.4 |
| 20260904170200 | 84 | 250 | 9.0 | 14.0 | 0.00 | 0.00 | 0.00 | 28 | 1020.4 |
| 20260904165158 | 85 | 260 | 9.0 | 14.0 | 0.00 | 0.00 | 0.00 | 27 | 1020.3 |
| 20260904164157 | 85 | 265 | 8.0 | 15.0 | 0.00 | 0.00 | 0.00 | 29 | 1020.3 |
| 20260904163159 | 85 | 258 | 7.0 | 12.0 | 0.00 | 0.00 | 0.00 | 30 | 1020.3 |
| 20260904162157 | 85 | 236 | 7.0 | 11.0 | 0.00 | 0.00 | 0.00 | 30 | 1020.3 |
| 20260904161155 | 85 | 202 | 7.0 | 12.0 | 0.00 | 0.00 | 0.00 | 29 | 1020.4 |
| 20260904160156 | 85 | 261 | 9.0 | 16.0 | 0.00 | 0.00 | 0.00 | 30 | 1020.4 |
| 20260904155155 | 86 | 223 | 7.0 | 12.0 | 0.00 | 0.00 | 0.00 | 29 | 1020.5 |
| 20260904154156 | 86 | 257 | 7.0 | 12.0 | 0.00 | 0.00 | 0.00 | 30 | 1020.5 |
| 20260904153156 | 86 | 198 | 8.0 | 12.0 | 0.00 | 0.00 | 0.00 | 30 | 1020.7 |
| 20260904152155 | 86 | 221 | 7.0 | 15.0 | 0.00 | 0.00 | 0.00 | 29 | 1020.8 |
| 20260904151158 | 86 | 221 | 5.0 | 14.0 | 0.00 | 0.00 | 0.00 | 29 | 1020.8 |